Time;durP1;ratioP1;P1;durP2;ratioP2;P2;SDS_P1;SDS_P2;PMS_P1;PMS_P2;Temp;Humidity;BMP_temperature;BMP_pressure;BME280_temperature;BME280_humidity;BME280_pressure;Samples;Min_cycle;Max_cycle;Signal;HPM_P1;HPM_P2
2020/12/23 00:00:30;;;;;;;31.00;27.73;;;11.70;99.90;;;;;;5115121;27;20491;-78
2020/12/23 00:02:57;;;;;;;35.40;26.20;;;11.70;99.90;;;;;;5118431;27;20510;-77
2020/12/23 00:05:24;;;;;;;35.40;25.37;;;11.70;99.90;;;;;;5119253;27;20526;-78
2020/12/23 00:07:50;;;;;;;31.17;26.20;;;11.70;99.90;;;;;;5123777;27;20461;-78
2020/12/23 00:10:16;;;;;;;35.13;26.17;;;11.70;99.90;;;;;;5124814;27;20480;-77
2020/12/23 00:12:44;;;;;;;32.97;27.60;;;11.70;99.90;;;;;;5124979;27;20464;-78
2020/12/23 00:15:12;;;;;;;44.30;26.60;;;11.70;99.90;;;;;;5117734;27;20485;-77
2020/12/23 00:17:39;;;;;;;34.00;26.50;;;11.60;99.90;;;;;;5118965;27;20859;-78
2020/12/23 00:20:06;;;;;;;29.50;24.73;;;11.60;99.90;;;;;;5121647;27;20916;-78
2020/12/23 00:22:32;;;;;;;28.10;25.40;;;11.60;99.90;;;;;;5119799;27;20467;-77
2020/12/23 00:24:59;;;;;;;26.00;23.67;;;11.70;99.90;;;;;;5118470;27;20505;-77
2020/12/23 00:27:25;;;;;;;26.43;23.63;;;11.70;99.90;;;;;;5124423;27;20448;-78
2020/12/23 00:29:53;;;;;;;27.20;24.90;;;11.60;99.90;;;;;;5121226;27;20509;-77
2020/12/23 00:32:21;;;;;;;36.63;26.20;;;11.70;99.90;;;;;;5120398;27;21034;-78
2020/12/23 00:34:49;;;;;;;29.53;26.70;;;11.70;99.90;;;;;;5117470;27;20558;-78
2020/12/23 00:37:16;;;;;;;29.93;27.03;;;11.60;99.90;;;;;;5122164;27;20548;-78
2020/12/23 00:39:42;;;;;;;31.07;28.00;;;11.60;99.90;;;;;;5113404;27;20480;-77
2020/12/23 00:42:08;;;;;;;33.10;29.80;;;11.60;99.90;;;;;;5125250;27;20456;-77
2020/12/23 00:44:35;;;;;;;39.97;29.53;;;11.70;99.90;;;;;;5119059;27;20542;-77
2020/12/23 00:47:05;;;;;;;35.20;30.80;;;11.70;99.90;;;;;;5122446;27;20456;-77
2020/12/23 00:49:31;;;;;;;33.67;30.33;;;11.70;99.90;;;;;;5123274;27;20468;-77
2020/12/23 00:52:00;;;;;;;32.60;29.67;;;11.80;99.90;;;;;;5121466;27;20453;-78
2020/12/23 00:54:26;;;;;;;32.57;29.50;;;11.80;99.90;;;;;;5115211;27;20626;-77
2020/12/23 00:56:52;;;;;;;33.70;30.33;;;11.80;99.90;;;;;;5120320;27;20459;-78
2020/12/23 00:59:20;;;;;;;33.00;29.50;;;11.80;99.90;;;;;;5119747;27;20559;-79
2020/12/23 01:01:47;;;;;;;31.80;29.03;;;11.80;99.90;;;;;;5117091;27;20505;-78
2020/12/23 01:04:14;;;;;;;33.80;30.70;;;11.80;99.90;;;;;;5115024;27;20523;-78
2020/12/23 01:06:41;;;;;;;32.87;29.60;;;11.80;99.90;;;;;;5115103;27;20464;-78
2020/12/23 01:09:08;;;;;;;35.27;31.53;;;11.80;99.90;;;;;;5119754;27;20543;-78
2020/12/23 01:11:34;;;;;;;35.83;31.87;;;11.80;99.90;;;;;;5118243;27;20468;-78
2020/12/23 01:14:00;;;;;;;34.80;31.20;;;11.80;99.90;;;;;;5120818;27;20480;-79
2020/12/23 01:16:27;;;;;;;34.50;31.27;;;11.80;99.90;;;;;;5122700;27;20468;-79
2020/12/23 01:18:54;;;;;;;34.17;31.20;;;11.80;99.90;;;;;;5118299;27;20465;-77
2020/12/23 01:21:21;;;;;;;34.80;31.60;;;11.80;99.90;;;;;;5115739;27;20572;-78
2020/12/23 01:23:47;;;;;;;35.63;31.33;;;11.80;99.90;;;;;;5122273;27;20461;-78
2020/12/23 01:26:15;;;;;;;35.60;32.40;;;11.70;99.90;;;;;;5118894;27;20460;-79
2020/12/23 01:28:41;;;;;;;34.87;31.43;;;11.80;99.90;;;;;;5118031;27;20483;-78
2020/12/23 01:31:07;;;;;;;36.27;32.57;;;11.80;99.90;;;;;;5122224;27;20464;-78
2020/12/23 01:33:36;;;;;;;33.93;30.40;;;11.80;99.90;;;;;;5118634;27;20465;-78
2020/12/23 01:36:02;;;;;;;34.40;31.50;;;11.80;99.90;;;;;;5121502;27;20476;-78
2020/12/23 01:38:30;;;;;;;31.67;28.70;;;11.90;99.90;;;;;;5120681;27;20499;-79
2020/12/23 01:40:57;;;;;;;34.50;31.03;;;11.80;99.90;;;;;;5120317;27;20453;-78
2020/12/23 01:43:25;;;;;;;34.47;31.37;;;11.80;99.90;;;;;;5120260;27;20476;-78
2020/12/23 01:45:51;;;;;;;33.03;29.50;;;11.80;99.90;;;;;;5116866;27;20469;-77
2020/12/23 01:48:20;;;;;;;31.70;28.57;;;11.80;99.90;;;;;;5117128;27;20453;-78
2020/12/23 01:50:46;;;;;;;32.40;29.70;;;11.80;99.90;;;;;;5123282;27;20529;-78
2020/12/23 01:53:13;;;;;;;31.20;28.67;;;11.80;99.90;;;;;;5116325;27;20506;-79
2020/12/23 01:55:43;;;;;;;29.10;26.90;;;11.80;99.90;;;;;;5117737;27;20549;-77
2020/12/23 01:58:10;;;;;;;30.37;27.60;;;11.80;99.90;;;;;;5116604;27;20456;-79
2020/12/23 02:00:36;;;;;;;28.70;26.30;;;11.80;99.90;;;;;;5117782;27;20487;-78
2020/12/23 02:03:05;;;;;;;27.83;25.43;;;11.80;99.90;;;;;;5120249;27;20852;-77
2020/12/23 02:05:32;;;;;;;28.50;26.37;;;11.80;99.90;;;;;;5123270;27;20460;-78
2020/12/23 02:07:59;;;;;;;27.10;24.70;;;11.80;99.90;;;;;;5120270;27;20453;-78
2020/12/23 02:10:27;;;;;;;26.73;24.70;;;11.80;99.90;;;;;;5117963;27;20828;-76
2020/12/23 02:12:54;;;;;;;26.20;24.30;;;11.90;99.90;;;;;;5116968;27;20487;-78
2020/12/23 02:15:22;;;;;;;26.60;24.20;;;11.80;99.90;;;;;;5117274;27;20573;-77
2020/12/23 02:17:52;;;;;;;27.00;24.63;;;11.90;99.90;;;;;;5118313;27;21030;-77
2020/12/23 02:20:18;;;;;;;26.17;24.10;;;11.90;99.90;;;;;;5120091;27;20959;-78
2020/12/23 02:22:47;;;;;;;26.07;24.10;;;11.80;99.90;;;;;;5116713;27;20471;-78
2020/12/23 02:25:15;;;;;;;26.53;23.83;;;11.80;99.90;;;;;;5119948;27;20974;-76
2020/12/23 02:27:44;;;;;;;27.40;25.00;;;11.70;99.90;;;;;;5120631;27;20569;-78
2020/12/23 02:30:12;;;;;;;25.40;23.30;;;11.70;99.90;;;;;;5117874;28;20485;-77
2020/12/23 02:32:38;;;;;;;26.30;24.33;;;11.60;99.90;;;;;;5122077;27;20453;-78
2020/12/23 02:35:07;;;;;;;27.70;25.00;;;11.50;99.90;;;;;;5117553;27;20493;-78
2020/12/23 02:37:33;;;;;;;28.10;25.40;;;11.50;99.90;;;;;;5120539;28;20468;-78
2020/12/23 02:40:01;;;;;;;27.90;25.50;;;11.50;99.90;;;;;;5115643;28;20830;-78
2020/12/23 02:42:28;;;;;;;30.80;28.03;;;11.50;99.90;;;;;;5120009;28;22366;-77
2020/12/23 02:44:57;;;;;;;28.43;25.67;;;11.60;99.90;;;;;;5117204;28;20971;-76
2020/12/23 02:47:24;;;;;;;26.40;24.20;;;11.60;99.90;;;;;;5118514;28;20487;-77
2020/12/23 02:49:51;;;;;;;26.90;24.40;;;11.60;99.90;;;;;;5122509;28;20462;-78
2020/12/23 02:52:17;;;;;;;28.63;26.00;;;11.60;99.90;;;;;;5117546;28;20475;-77
2020/12/23 02:54:43;;;;;;;26.90;24.70;;;11.60;99.90;;;;;;5118966;28;20481;-76
2020/12/23 02:57:12;;;;;;;26.63;24.63;;;11.60;99.90;;;;;;5119639;28;20509;-77
2020/12/23 02:59:39;;;;;;;24.93;23.13;;;11.70;99.90;;;;;;5119273;28;20488;-77
2020/12/23 03:02:07;;;;;;;26.67;24.17;;;11.70;99.90;;;;;;5123919;28;20461;-77
2020/12/23 03:04:33;;;;;;;23.77;21.60;;;11.70;99.90;;;;;;5121464;28;20468;-77
2020/12/23 03:07:01;;;;;;;24.73;22.20;;;11.80;99.90;;;;;;5124339;28;20468;-77
2020/12/23 03:09:28;;;;;;;23.53;21.97;;;11.80;99.90;;;;;;5124802;28;20457;-77
2020/12/23 03:11:55;;;;;;;25.63;23.80;;;11.80;99.90;;;;;;5120705;28;20460;-77
2020/12/23 03:14:23;;;;;;;25.23;23.43;;;11.80;99.90;;;;;;5118891;28;20879;-76
2020/12/23 03:16:51;;;;;;;24.33;22.30;;;11.90;99.90;;;;;;5122881;28;20800;-76
2020/12/23 03:19:17;;;;;;;24.47;22.43;;;11.90;99.90;;;;;;5121519;28;20453;-76
2020/12/23 03:21:43;;;;;;;23.77;21.67;;;11.80;99.90;;;;;;5117886;28;20464;-76
2020/12/23 03:24:10;;;;;;;23.37;21.47;;;11.80;99.90;;;;;;5113932;28;20449;-77
2020/12/23 03:26:37;;;;;;;29.67;21.30;;;11.70;99.90;;;;;;5123883;28;20828;-76
2020/12/23 03:29:04;;;;;;;24.13;21.60;;;11.70;99.90;;;;;;5120710;28;20460;-78
2020/12/23 03:31:32;;;;;;;24.23;21.80;;;11.60;99.90;;;;;;5123504;28;20499;-78
2020/12/23 03:33:58;;;;;;;23.40;21.80;;;11.50;99.90;;;;;;5116576;27;20571;-75
2020/12/23 03:36:25;;;;;;;23.23;21.30;;;11.60;99.90;;;;;;5124408;28;20493;-77
2020/12/23 03:38:51;;;;;;;23.93;22.07;;;11.60;99.90;;;;;;5124883;28;20461;-77
2020/12/23 03:41:17;;;;;;;23.80;21.57;;;11.70;99.90;;;;;;5121815;28;20491;-76
2020/12/23 03:43:44;;;;;;;23.10;21.03;;;11.80;99.90;;;;;;5117160;27;20457;-77
2020/12/23 03:46:13;;;;;;;22.40;20.63;;;11.80;99.90;;;;;;5124216;27;20460;-76
2020/12/23 03:48:40;;;;;;;21.90;20.23;;;11.70;99.90;;;;;;5118676;27;20460;-77
2020/12/23 03:51:07;;;;;;;22.03;20.43;;;11.70;99.90;;;;;;5124742;27;20534;-76
2020/12/23 03:53:33;;;;;;;22.47;20.67;;;11.70;99.90;;;;;;5128040;27;20468;-76
2020/12/23 03:56:00;;;;;;;20.50;19.20;;;11.70;99.90;;;;;;5125158;27;20488;-78
2020/12/23 03:58:26;;;;;;;22.63;20.97;;;11.70;99.90;;;;;;5128082;27;20518;-78
2020/12/23 04:00:52;;;;;;;22.87;21.27;;;11.70;99.90;;;;;;5122887;27;20475;-75
2020/12/23 04:03:19;;;;;;;22.90;21.40;;;11.70;99.90;;;;;;5125543;27;20482;-77
2020/12/23 04:05:46;;;;;;;22.90;21.13;;;11.80;99.90;;;;;;5122438;27;20463;-76
2020/12/23 04:08:13;;;;;;;22.80;21.10;;;11.70;99.90;;;;;;5123295;27;20465;-76
2020/12/23 04:10:42;;;;;;;21.57;19.97;;;11.70;99.90;;;;;;5124031;27;20495;-76
2020/12/23 04:13:08;;;;;;;21.60;20.20;;;11.80;99.90;;;;;;5122550;27;20464;-78
2020/12/23 04:15:35;;;;;;;21.33;20.03;;;11.80;99.90;;;;;;5124198;27;20960;-76
2020/12/23 04:18:01;;;;;;;20.93;19.73;;;11.90;99.90;;;;;;5121482;27;20460;-76
2020/12/23 04:20:27;;;;;;;19.43;18.23;;;11.80;99.90;;;;;;5123718;27;20457;-77
2020/12/23 04:22:56;;;;;;;21.50;19.73;;;11.80;99.90;;;;;;5121545;27;20466;-77
2020/12/23 04:25:23;;;;;;;19.70;18.50;;;11.90;99.90;;;;;;5125153;27;20460;-78
2020/12/23 04:27:50;;;;;;;19.70;18.40;;;11.90;99.90;;;;;;5121652;27;20507;-77
2020/12/23 04:30:16;;;;;;;19.40;18.30;;;11.90;99.90;;;;;;5121168;27;20444;-78
2020/12/23 04:32:42;;;;;;;18.83;17.73;;;12.00;99.90;;;;;;5119148;27;20452;-78
2020/12/23 04:35:09;;;;;;;18.70;17.00;;;12.00;99.90;;;;;;5116955;27;20499;-79
2020/12/23 04:37:35;;;;;;;19.10;17.67;;;11.90;99.90;;;;;;5122226;27;20453;-78
2020/12/23 04:40:05;;;;;;;18.83;17.60;;;11.90;99.90;;;;;;5124636;27;20464;-77
2020/12/23 04:42:32;;;;;;;19.13;18.03;;;11.90;99.90;;;;;;5124061;27;20579;-78
2020/12/23 04:44:58;;;;;;;20.13;18.77;;;11.90;99.90;;;;;;5117957;27;20449;-77
2020/12/23 04:47:26;;;;;;;20.87;19.47;;;11.80;99.90;;;;;;5124065;27;20517;-77
2020/12/23 04:49:54;;;;;;;20.93;18.70;;;11.80;99.90;;;;;;5121673;27;20489;-77
2020/12/23 04:52:29;;;;;;;20.80;19.60;;;11.80;99.90;;;;;;5127459;27;20464;-78
2020/12/23 04:54:55;;;;;;;21.10;19.10;;;11.80;99.90;;;;;;5120430;27;20484;-77
2020/12/23 04:57:25;;;;;;;19.53;18.30;;;11.70;99.90;;;;;;5122047;27;20463;-79
2020/12/23 04:59:52;;;;;;;20.23;18.73;;;11.70;99.90;;;;;;5119471;27;20485;-78
2020/12/23 05:02:18;;;;;;;19.90;18.50;;;11.60;99.90;;;;;;5116002;27;20460;-79
2020/12/23 05:04:45;;;;;;;20.83;19.43;;;11.60;99.90;;;;;;5119347;27;20464;-78
2020/12/23 05:07:11;;;;;;;20.13;18.53;;;11.60;99.90;;;;;;5119165;27;20449;-78
2020/12/23 05:09:37;;;;;;;20.57;19.33;;;11.70;99.90;;;;;;5122755;27;20456;-78
2020/12/23 05:12:04;;;;;;;20.13;18.93;;;11.70;99.90;;;;;;5117742;27;20472;-78
2020/12/23 05:14:31;;;;;;;20.87;19.57;;;11.70;99.90;;;;;;5115780;27;20492;-77
2020/12/23 05:16:59;;;;;;;21.83;20.33;;;11.70;99.90;;;;;;5119808;27;20462;-78
2020/12/23 05:19:25;;;;;;;23.17;21.30;;;11.70;99.90;;;;;;5122866;27;20577;-78
2020/12/23 05:21:51;;;;;;;20.33;19.20;;;11.70;99.90;;;;;;5119648;27;20477;-78
2020/12/23 05:24:18;;;;;;;20.30;18.80;;;11.70;99.90;;;;;;5120750;27;20491;-78
2020/12/23 05:26:46;;;;;;;19.73;18.63;;;11.80;99.90;;;;;;5120076;27;20467;-79
2020/12/23 05:29:15;;;;;;;19.73;18.33;;;11.80;99.90;;;;;;5116704;27;20491;-77
2020/12/23 05:31:43;;;;;;;19.53;18.23;;;11.80;99.90;;;;;;5121145;27;20547;-75
2020/12/23 05:34:10;;;;;;;18.83;17.70;;;11.90;99.90;;;;;;5116808;27;20598;-75
2020/12/23 05:36:40;;;;;;;19.80;18.30;;;11.80;99.90;;;;;;5119058;27;20511;-75
2020/12/23 05:39:08;;;;;;;19.57;18.37;;;11.90;99.90;;;;;;5116298;27;20464;-75
2020/12/23 05:41:36;;;;;;;18.13;16.80;;;12.00;99.90;;;;;;5115306;27;20966;-75
2020/12/23 05:44:15;;;;;;;18.50;17.30;;;12.00;99.90;;;;;;5115980;27;20548;-75
2020/12/23 05:46:44;;;;;;;18.97;17.50;;;12.00;99.90;;;;;;5128344;27;20452;-75
2020/12/23 05:49:13;;;;;;;19.00;17.90;;;12.10;99.90;;;;;;5119640;27;20460;-75
2020/12/23 05:51:40;;;;;;;17.77;16.80;;;12.10;99.90;;;;;;5120278;27;20544;-75
2020/12/23 05:54:07;;;;;;;17.70;16.80;;;12.00;99.90;;;;;;5116656;27;20457;-74
2020/12/23 05:56:37;;;;;;;17.80;16.80;;;12.00;99.90;;;;;;5122153;27;20460;-74
2020/12/23 05:59:05;;;;;;;18.43;17.43;;;12.00;99.90;;;;;;5120596;27;20472;-75
2020/12/23 06:01:34;;;;;;;18.40;17.40;;;11.90;99.90;;;;;;5116009;27;20981;-75
2020/12/23 06:04:06;;;;;;;17.80;16.90;;;11.90;99.90;;;;;;5114063;27;20468;-76
2020/12/23 06:06:34;;;;;;;18.83;17.83;;;11.90;99.90;;;;;;5118701;27;20457;-75
2020/12/23 06:09:03;;;;;;;18.67;17.57;;;11.90;99.90;;;;;;5117937;27;20487;-75
2020/12/23 06:11:32;;;;;;;18.20;17.20;;;11.90;99.90;;;;;;5120052;27;20460;-75
2020/12/23 06:14:20;;;;;;;17.87;16.97;;;11.90;99.90;;;;;;5120498;27;20449;-75
2020/12/23 06:16:48;;;;;;;18.30;17.30;;;11.90;99.90;;;;;;5113683;27;20480;-75
2020/12/23 06:19:36;;;;;;;18.30;17.40;;;11.90;99.90;;;;;;5117119;27;20962;-76
2020/12/23 06:22:04;;;;;;;18.57;17.67;;;11.90;99.90;;;;;;5118501;27;20886;-76
2020/12/23 06:24:31;;;;;;;18.40;17.33;;;11.90;99.90;;;;;;5116682;27;20463;-76
2020/12/23 06:26:59;;;;;;;18.27;17.37;;;11.90;99.90;;;;;;5114475;28;20456;-76
2020/12/23 06:29:27;;;;;;;18.67;17.70;;;11.90;99.90;;;;;;5116068;27;20488;-76
2020/12/23 06:31:56;;;;;;;17.40;16.50;;;11.90;99.90;;;;;;5117068;27;20468;-76
2020/12/23 06:34:24;;;;;;;17.73;16.80;;;11.90;99.90;;;;;;5120785;27;20829;-76
2020/12/23 06:36:54;;;;;;;17.03;16.13;;;11.90;99.90;;;;;;5122809;27;20479;-76
2020/12/23 06:39:27;;;;;;;17.10;16.10;;;11.90;99.90;;;;;;5118306;28;20959;-76
2020/12/23 06:41:55;;;;;;;17.60;16.70;;;11.90;99.90;;;;;;5117654;28;20481;-76
2020/12/23 06:44:22;;;;;;;17.20;16.40;;;11.90;99.90;;;;;;5112997;28;20476;-76
2020/12/23 06:47:10;;;;;;;17.70;16.80;;;11.90;99.90;;;;;;5116234;28;20501;-77
2020/12/23 06:49:38;;;;;;;17.07;16.27;;;11.90;99.90;;;;;;5116958;28;20954;-76
2020/12/23 06:52:30;;;;;;;17.07;16.17;;;11.90;99.90;;;;;;5115851;28;20464;-77
2020/12/23 06:54:58;;;;;;;17.50;16.60;;;11.90;99.90;;;;;;5120497;28;20481;-76
2020/12/23 06:57:50;;;;;;;17.10;16.10;;;11.90;99.90;;;;;;5118018;28;20589;-77
2020/12/23 07:00:37;;;;;;;17.90;16.90;;;11.90;99.90;;;;;;5118635;28;20519;-77
2020/12/23 07:03:06;;;;;;;17.60;16.70;;;11.90;99.90;;;;;;5112740;28;20476;-77
2020/12/23 07:05:46;;;;;;;17.57;16.70;;;11.90;99.90;;;;;;5115106;28;20469;-77
2020/12/23 07:08:17;;;;;;;17.83;16.93;;;11.80;99.90;;;;;;5114911;28;20461;-76
2020/12/23 07:10:46;;;;;;;20.30;19.00;;;11.80;99.90;;;;;;5115684;28;20460;-76
2020/12/23 07:13:16;;;;;;;24.60;22.50;;;11.80;99.90;;;;;;5118198;28;20465;-76
2020/12/23 07:15:44;;;;;;;17.97;17.03;;;11.90;99.90;;;;;;5126493;28;20534;-76
2020/12/23 07:18:12;;;;;;;17.73;16.83;;;11.90;99.90;;;;;;5115410;27;20453;-76
2020/12/23 07:20:44;;;;;;;18.10;17.10;;;11.80;99.90;;;;;;5123109;27;20460;-76
2020/12/23 07:23:12;;;;;;;18.20;17.07;;;11.80;99.90;;;;;;5117194;27;20490;-76
2020/12/23 07:25:47;;;;;;;17.60;16.70;;;11.80;99.90;;;;;;5118971;27;20452;-76
2020/12/23 07:28:17;;;;;;;17.70;16.70;;;11.80;99.90;;;;;;5127207;27;20542;-76
2020/12/23 07:30:44;;;;;;;17.93;17.03;;;11.80;99.90;;;;;;5123863;27;20453;-76
2020/12/23 07:33:16;;;;;;;18.60;17.57;;;11.80;99.90;;;;;;5121903;27;20456;-76
2020/12/23 07:35:45;;;;;;;18.00;17.00;;;11.70;99.90;;;;;;5119524;27;20515;-77
2020/12/23 07:38:12;;;;;;;17.30;16.40;;;11.60;99.90;;;;;;5119042;27;20457;-77
2020/12/23 07:40:38;;;;;;;18.17;17.17;;;11.50;99.90;;;;;;5123742;27;20484;-77
2020/12/23 07:43:06;;;;;;;18.40;17.40;;;11.50;99.90;;;;;;5124912;27;20464;-78
2020/12/23 07:45:36;;;;;;;18.30;17.30;;;11.40;99.90;;;;;;5118677;27;20536;-77
2020/12/23 07:48:07;;;;;;;18.30;17.30;;;11.40;99.90;;;;;;5117345;27;20463;-77
2020/12/23 07:50:34;;;;;;;18.90;17.70;;;11.40;99.90;;;;;;5123164;27;20461;-77
2020/12/23 07:53:13;;;;;;;19.60;18.30;;;11.40;99.90;;;;;;5117926;27;20839;-77
2020/12/23 07:55:42;;;;;;;19.93;18.67;;;11.40;99.90;;;;;;5117155;27;20488;-77
2020/12/23 07:58:10;;;;;;;19.37;18.17;;;11.40;99.90;;;;;;5121538;27;20457;-77
2020/12/23 08:00:38;;;;;;;17.67;16.60;;;11.30;99.90;;;;;;5121819;27;20484;-76
2020/12/23 08:03:05;;;;;;;23.00;21.00;;;11.30;99.90;;;;;;5126534;27;20464;-77
2020/12/23 08:05:32;;;;;;;20.83;19.23;;;11.30;99.90;;;;;;5124726;27;22661;-76
2020/12/23 08:07:58;;;;;;;18.40;17.20;;;11.30;99.90;;;;;;5121885;27;20456;-76
2020/12/23 08:10:26;;;;;;;18.43;17.17;;;11.30;99.90;;;;;;5122036;27;20457;-76
2020/12/23 08:12:54;;;;;;;18.87;17.47;;;11.20;99.90;;;;;;5123917;27;20456;-77
2020/12/23 08:15:22;;;;;;;18.67;17.47;;;11.20;99.90;;;;;;5119081;27;20507;-77
2020/12/23 08:17:48;;;;;;;19.83;17.73;;;11.20;99.90;;;;;;5115066;27;20461;-77
2020/12/23 08:20:16;;;;;;;20.07;18.50;;;11.20;99.90;;;;;;5127109;27;20459;-77
2020/12/23 08:22:45;;;;;;;18.70;17.10;;;11.30;99.90;;;;;;5122824;27;20834;-77
2020/12/23 08:25:16;;;;;;;18.80;17.67;;;11.30;99.90;;;;;;5117811;27;20984;-76
2020/12/23 08:27:44;;;;;;;19.93;18.53;;;11.30;99.90;;;;;;5115676;27;20456;-77
2020/12/23 08:30:12;;;;;;;19.60;18.10;;;11.30;99.90;;;;;;5121730;27;20496;-77
2020/12/23 08:32:52;;;;;;;20.57;18.97;;;11.30;99.90;;;;;;5123690;27;20453;-76
2020/12/23 08:35:19;;;;;;;21.20;19.30;;;11.40;99.90;;;;;;5117739;27;21115;-77
2020/12/23 08:37:46;;;;;;;23.33;21.27;;;11.40;99.90;;;;;;5116390;27;20461;-77
2020/12/23 08:40:16;;;;;;;22.67;20.10;;;11.40;99.90;;;;;;5112798;27;20534;-77
2020/12/23 08:42:51;;;;;;;20.33;18.93;;;11.50;99.90;;;;;;5110125;27;20456;-77
2020/12/23 08:45:22;;;;;;;21.03;18.80;;;11.50;99.90;;;;;;5106031;27;20866;-77
2020/12/23 08:47:50;;;;;;;21.33;19.87;;;11.60;99.90;;;;;;5118165;27;20461;-77
2020/12/23 08:50:18;;;;;;;21.23;19.40;;;11.50;99.90;;;;;;5113942;27;20556;-77
2020/12/23 08:52:46;;;;;;;21.67;19.83;;;11.60;99.90;;;;;;5119894;27;20464;-77
2020/12/23 08:55:19;;;;;;;22.20;20.43;;;11.70;99.90;;;;;;5120546;27;20498;-77
2020/12/23 08:57:46;;;;;;;21.70;19.87;;;11.70;99.90;;;;;;5118530;27;20459;-78
2020/12/23 09:00:17;;;;;;;21.30;19.70;;;11.90;99.90;;;;;;5115278;27;20481;-78
2020/12/23 09:02:45;;;;;;;21.93;20.20;;;12.00;99.90;;;;;;5116396;27;20467;-77
2020/12/23 09:05:23;;;;;;;20.87;19.40;;;12.00;99.90;;;;;;5113625;27;20896;-76
2020/12/23 09:08:03;;;;;;;22.33;20.77;;;12.10;99.90;;;;;;5112260;27;20551;-77
2020/12/23 09:10:30;;;;;;;21.03;19.33;;;12.10;99.90;;;;;;5114959;27;20517;-77
2020/12/23 09:13:07;;;;;;;23.93;21.40;;;12.10;99.90;;;;;;5112573;27;20464;-76
2020/12/23 09:15:34;;;;;;;23.27;21.47;;;12.20;99.90;;;;;;5118210;27;20483;-75
2020/12/23 09:18:08;;;;;;;23.40;21.77;;;12.20;99.90;;;;;;5117959;27;20484;-75
2020/12/23 09:20:37;;;;;;;25.80;23.70;;;12.30;99.90;;;;;;5116295;27;20466;-77
2020/12/23 09:23:05;;;;;;;24.53;22.27;;;12.40;99.90;;;;;;5119496;27;20460;-76
2020/12/23 09:25:33;;;;;;;24.53;22.63;;;12.40;99.90;;;;;;5109420;27;20461;-77
2020/12/23 09:28:07;;;;;;;23.30;21.40;;;12.50;99.90;;;;;;5117164;27;20465;-78
2020/12/23 09:30:35;;;;;;;23.40;21.80;;;12.60;99.90;;;;;;5118053;27;20491;-76
2020/12/23 09:33:02;;;;;;;23.27;21.47;;;12.60;99.90;;;;;;5116386;27;20963;-76
2020/12/23 09:35:29;;;;;;;24.33;22.20;;;12.70;99.90;;;;;;5116923;27;20536;-76
2020/12/23 09:38:24;;;;;;;24.20;22.20;;;12.80;99.90;;;;;;5118670;27;20517;-76
2020/12/23 09:40:52;;;;;;;22.83;21.23;;;12.80;99.90;;;;;;5093258;27;20848;-76
2020/12/23 09:43:20;;;;;;;22.23;20.73;;;12.70;99.90;;;;;;5117245;27;20544;-76
2020/12/23 09:45:47;;;;;;;21.87;20.30;;;12.70;99.90;;;;;;5119811;27;20472;-76
2020/12/23 09:48:16;;;;;;;24.27;22.27;;;12.70;99.90;;;;;;5116381;27;20995;-75
2020/12/23 09:50:43;;;;;;;22.47;20.87;;;12.70;99.90;;;;;;5116725;27;20975;-76
2020/12/23 09:53:09;;;;;;;22.73;21.23;;;12.80;99.90;;;;;;5118731;27;20468;-76
2020/12/23 09:55:39;;;;;;;22.70;20.50;;;12.80;99.90;;;;;;5115777;27;20487;-76
2020/12/23 09:58:06;;;;;;;23.87;21.83;;;12.70;99.90;;;;;;5112741;27;20468;-77
2020/12/23 10:00:32;;;;;;;24.37;21.90;;;12.70;99.90;;;;;;5110376;27;20480;-77
2020/12/23 10:02:58;;;;;;;24.23;21.97;;;12.70;99.90;;;;;;5115646;27;20467;-78
2020/12/23 10:05:26;;;;;;;22.80;20.90;;;12.70;99.90;;;;;;5115713;27;20464;-76
2020/12/23 10:07:52;;;;;;;22.50;20.80;;;12.70;99.90;;;;;;5117020;27;20457;-76
2020/12/23 10:10:20;;;;;;;23.33;21.17;;;12.60;99.90;;;;;;5114448;27;20469;-76
2020/12/23 10:12:47;;;;;;;21.87;20.27;;;12.60;99.90;;;;;;5113698;27;20465;-76
2020/12/23 10:15:13;;;;;;;22.37;20.60;;;12.60;99.90;;;;;;5114386;27;20492;-77
2020/12/23 10:17:40;;;;;;;22.33;20.63;;;12.60;99.90;;;;;;5112036;27;20510;-76
2020/12/23 10:20:08;;;;;;;22.70;20.60;;;12.50;99.90;;;;;;5110019;27;20502;-77
2020/12/23 10:22:34;;;;;;;20.50;19.00;;;12.40;99.90;;;;;;5113504;27;20487;-76
2020/12/23 10:25:00;;;;;;;21.60;19.60;;;12.40;99.90;;;;;;5112842;27;20471;-76
2020/12/23 10:27:27;;;;;;;21.87;19.63;;;12.30;99.90;;;;;;5114072;27;20461;-75
2020/12/23 10:29:55;;;;;;;21.53;19.53;;;12.20;99.90;;;;;;5117450;27;20529;-76
2020/12/23 10:32:21;;;;;;;21.37;19.27;;;12.30;99.90;;;;;;5112592;27;20484;-75
2020/12/23 10:34:48;;;;;;;21.20;19.30;;;12.20;99.90;;;;;;5118124;27;20525;-76
2020/12/23 10:37:14;;;;;;;21.27;19.37;;;12.20;99.90;;;;;;5113254;27;20817;-75
2020/12/23 10:39:41;;;;;;;21.43;19.23;;;12.20;99.90;;;;;;5114680;27;20461;-75
2020/12/23 10:42:08;;;;;;;21.47;19.30;;;12.20;99.90;;;;;;5110918;28;20464;-76
2020/12/23 10:44:34;;;;;;;21.77;19.73;;;12.20;99.90;;;;;;5114524;28;20465;-76
2020/12/23 10:47:02;;;;;;;20.23;18.60;;;12.20;99.90;;;;;;5120891;28;21008;-74
2020/12/23 10:49:29;;;;;;;21.27;19.23;;;12.20;99.90;;;;;;5116331;28;20534;-75
2020/12/23 10:51:57;;;;;;;23.17;20.90;;;12.20;99.90;;;;;;5112265;28;20550;-76
2020/12/23 10:54:23;;;;;;;22.00;19.87;;;12.20;99.90;;;;;;5119343;27;20492;-76
2020/12/23 10:56:50;;;;;;;24.33;19.57;;;12.20;99.90;;;;;;5116179;27;20488;-76
2020/12/23 10:59:16;;;;;;;22.20;20.10;;;12.20;99.90;;;;;;5116923;27;20492;-76
2020/12/23 11:01:43;;;;;;;21.03;19.53;;;12.20;99.90;;;;;;5115681;27;20464;-76
2020/12/23 11:04:11;;;;;;;19.90;18.50;;;12.20;99.90;;;;;;5113297;27;20463;-75
2020/12/23 11:06:37;;;;;;;21.43;19.33;;;12.30;99.90;;;;;;5115900;27;20461;-76
2020/12/23 11:09:05;;;;;;;22.20;20.20;;;12.30;99.90;;;;;;5114352;27;20465;-75
2020/12/23 11:11:31;;;;;;;23.53;21.20;;;12.30;99.90;;;;;;5120232;27;20468;-75
2020/12/23 11:13:57;;;;;;;24.57;22.37;;;12.30;99.90;;;;;;5116025;27;20456;-73
2020/12/23 11:16:27;;;;;;;25.03;23.13;;;12.40;99.90;;;;;;5116502;27;20555;-75
2020/12/23 11:18:53;;;;;;;24.90;22.40;;;12.30;99.90;;;;;;5121339;27;20459;-75
2020/12/23 11:21:20;;;;;;;32.10;24.10;;;12.30;99.90;;;;;;5115203;27;20829;-76
2020/12/23 11:23:47;;;;;;;46.93;23.87;;;12.30;99.90;;;;;;5116246;27;20460;-74
2020/12/23 11:26:17;;;;;;;25.77;23.57;;;12.40;99.90;;;;;;5114742;27;20930;-75
2020/12/23 11:28:44;;;;;;;25.00;22.43;;;12.40;99.90;;;;;;5117939;27;20470;-75
2020/12/23 11:31:12;;;;;;;24.43;22.30;;;12.30;99.90;;;;;;5115301;27;20449;-75
2020/12/23 11:33:39;;;;;;;23.50;21.70;;;12.40;99.90;;;;;;5115832;27;20456;-74
2020/12/23 11:36:06;;;;;;;23.10;21.40;;;12.30;99.90;;;;;;5124531;27;20612;-75
2020/12/23 11:38:33;;;;;;;23.47;21.83;;;12.30;99.90;;;;;;5117872;27;20452;-75
2020/12/23 11:41:00;;;;;;;23.93;22.33;;;12.40;99.90;;;;;;5117114;27;20505;-76
2020/12/23 11:43:27;;;;;;;22.37;20.73;;;12.40;99.90;;;;;;5115730;27;20467;-74
2020/12/23 11:45:54;;;;;;;21.60;20.00;;;12.50;99.90;;;;;;5117512;27;20467;-75
2020/12/23 11:48:20;;;;;;;25.97;23.87;;;12.60;99.90;;;;;;5114892;27;20460;-77
2020/12/23 11:50:46;;;;;;;19.97;18.53;;;12.60;99.90;;;;;;5116657;27;20495;-75
2020/12/23 11:53:12;;;;;;;19.43;18.33;;;12.70;99.90;;;;;;5115155;27;20521;-74
2020/12/23 11:55:39;;;;;;;19.47;18.37;;;12.60;99.90;;;;;;5118084;27;20492;-75
2020/12/23 11:58:06;;;;;;;19.03;17.97;;;12.60;99.90;;;;;;5114941;27;20465;-76
2020/12/23 12:00:32;;;;;;;19.00;17.93;;;12.50;99.90;;;;;;5112533;27;20484;-75
2020/12/23 12:02:59;;;;;;;19.30;18.07;;;12.50;99.90;;;;;;5126941;27;20461;-74
2020/12/23 12:05:25;;;;;;;18.20;17.30;;;12.50;99.90;;;;;;5122146;27;20830;-74
2020/12/23 12:07:52;;;;;;;18.77;17.30;;;12.50;99.90;;;;;;5119699;27;20501;-75
2020/12/23 12:10:19;;;;;;;16.90;16.10;;;12.60;99.90;;;;;;5114420;27;21039;-75
2020/12/23 12:12:46;;;;;;;18.20;16.87;;;12.50;99.90;;;;;;5122289;27;20467;-75
2020/12/23 12:15:13;;;;;;;18.13;16.67;;;12.50;99.90;;;;;;5120356;27;20513;-75
2020/12/23 12:17:39;;;;;;;17.60;16.50;;;12.50;99.90;;;;;;5120027;27;20460;-74
2020/12/23 12:20:06;;;;;;;17.63;16.40;;;12.50;99.90;;;;;;5119902;27;20861;-74
2020/12/23 12:22:32;;;;;;;18.20;16.00;;;12.50;99.90;;;;;;5120364;27;20460;-73
2020/12/23 12:24:58;;;;;;;35.73;16.50;;;12.50;99.90;;;;;;5122376;27;20856;-74
2020/12/23 12:27:24;;;;;;;17.97;16.40;;;12.30;99.90;;;;;;5125661;27;20456;-74
2020/12/23 12:29:52;;;;;;;17.17;16.07;;;12.20;99.90;;;;;;5114445;27;20519;-76
2020/12/23 12:32:18;;;;;;;17.77;16.20;;;12.20;99.90;;;;;;5117263;27;20892;-73